KMCN/MCN METAR and TAF weather

Enter ICAO airport designator
Station Type Date Time Source
KMCN METAR 2020/09/23 01:53 UTC NOAA

KMCN 230153Z AUTO 00000KT 10SM CLR 19/15 A3013 RMK AO2 SLP200 T01890150


Station Type Date Time Source
KMCN Decoded METAR 2020/09/23 01:53 UTC NOAA

MIDDLE GEORGIA REGIONAL AIRPORT , GA, United States (KMCN) 32-41N 83-39W 109M
Sep 22, 2020 - 09:53 PM EDT / 2020.09.23 0153 UTC
Wind: Calm:0
Visibility: 10 mile(s):0
Sky conditions: clear
Temperature: 66.0 F (18.9 C)
Dew Point: 59.0 F (15.0 C)
Relative Humidity: 78%
Pressure (altimeter): 30.13 in. Hg (1020 hPa)
ob: KMCN 230153Z AUTO 00000KT 10SM CLR 19/15 A3013 RMK AO2 SLP200 T01890150
cycle: 2

Station Type Date Time Source
KMCN TAF 2020/09/22 18:36 UTC NOAA

TAF KMCN 221732Z 2218/2318 06005KT P6SM SCT250
FM222100 VRB03KT P6SM BKN250
FM230500 VRB03KT P6SM BKN150

Example: see airport list